createdAt,value
2022-11-13T00:04:25.180Z,6.63
2022-11-13T00:09:26.559Z,5.82
2022-11-13T00:14:27.923Z,6.63
2022-11-13T00:19:29.338Z,8.00
2022-11-13T00:24:30.708Z,6.35
2022-11-13T00:29:32.079Z,9.00
2022-11-13T00:34:47.251Z,7.45
2022-11-13T00:39:49.305Z,6.40
2022-11-13T00:44:50.669Z,6.70
2022-11-13T00:49:52.031Z,7.25
2022-11-13T00:54:53.439Z,7.63
2022-11-13T00:59:54.847Z,5.60
2022-11-13T01:04:56.219Z,7.68
2022-11-13T01:09:57.607Z,6.75
2022-11-13T01:14:58.963Z,6.65
2022-11-13T01:20:00.338Z,7.50
2022-11-13T01:25:01.710Z,6.72
2022-11-13T01:30:03.923Z,7.88
2022-11-13T01:35:05.581Z,6.90
2022-11-13T01:40:07.327Z,6.93
2022-11-13T01:45:46.103Z,8.32
2022-11-13T01:50:47.472Z,7.20
2022-11-13T01:55:48.879Z,8.20
2022-11-13T02:00:50.251Z,7.22
2022-11-13T02:05:51.855Z,7.32
2022-11-13T02:10:53.225Z,7.45
2022-11-13T02:15:54.587Z,6.15
2022-11-13T02:21:11.005Z,5.97
2022-11-13T02:26:12.375Z,7.07
2022-11-13T02:31:13.812Z,7.15
2022-11-13T02:36:15.435Z,6.15
2022-11-13T02:41:16.814Z,5.75
2022-11-13T02:46:18.211Z,5.40
2022-11-13T02:51:19.567Z,6.78
2022-11-13T02:56:20.992Z,6.05
2022-11-13T03:01:22.444Z,6.75
2022-11-13T03:06:23.880Z,5.40
2022-11-13T03:11:25.251Z,5.13
2022-11-13T03:16:26.610Z,5.60
2022-11-13T03:21:27.993Z,5.25
2022-11-13T03:26:29.431Z,5.57
2022-11-13T03:31:30.833Z,5.75
2022-11-13T03:36:32.206Z,4.95
2022-11-13T03:41:33.568Z,5.78
2022-11-13T03:46:34.943Z,4.75
2022-11-13T03:51:36.311Z,5.90
2022-11-13T03:56:37.699Z,6.38
2022-11-13T04:01:39.115Z,5.70
2022-11-13T04:06:40.616Z,4.90
2022-11-13T04:11:42.036Z,4.55
2022-11-13T04:16:43.421Z,4.85
2022-11-13T04:21:44.819Z,5.57
2022-11-13T04:26:46.186Z,4.82
2022-11-13T04:31:47.597Z,5.28
2022-11-13T04:36:48.958Z,4.88
2022-11-13T04:42:08.801Z,5.35
2022-11-13T04:47:10.172Z,4.00
2022-11-13T04:52:11.553Z,4.60
2022-11-13T04:57:12.948Z,4.47
2022-11-13T05:02:14.371Z,5.60
2022-11-13T05:07:15.830Z,4.40
2022-11-13T05:12:17.231Z,4.82
2022-11-13T05:17:18.611Z,4.50
2022-11-13T05:22:19.992Z,4.15
2022-11-13T05:27:21.363Z,3.40
2022-11-13T05:32:22.736Z,4.20
2022-11-13T05:37:24.117Z,4.13
2022-11-13T05:42:25.496Z,4.20
2022-11-13T05:47:26.869Z,3.88
2022-11-13T05:52:28.236Z,4.10
2022-11-13T05:57:29.642Z,4.97
2022-11-13T06:02:31.108Z,3.92
2022-11-13T06:07:32.480Z,4.15
2022-11-13T06:12:33.847Z,6.03
2022-11-13T06:17:35.212Z,4.35
2022-11-13T06:22:36.568Z,3.95
2022-11-13T06:27:37.926Z,3.63
2022-11-13T06:32:39.360Z,4.57
2022-11-13T06:37:40.732Z,4.47
2022-11-13T06:42:42.092Z,3.38
2022-11-13T06:47:43.451Z,3.85
2022-11-13T06:52:44.819Z,3.67
2022-11-13T06:57:46.220Z,3.78
2022-11-13T07:02:50.731Z,4.55
2022-11-13T07:07:52.265Z,4.65
2022-11-13T07:12:54.832Z,4.00
2022-11-13T07:17:56.363Z,3.65
2022-11-13T07:22:58.361Z,3.92
2022-11-13T07:27:59.772Z,3.53
2022-11-13T07:33:04.441Z,3.75
2022-11-13T07:38:05.812Z,3.38
2022-11-13T07:43:07.187Z,4.57
2022-11-13T07:48:09.283Z,4.32
2022-11-13T07:53:10.872Z,3.47
2022-11-13T07:58:12.337Z,3.45
2022-11-13T08:03:16.712Z,4.13
2022-11-13T08:08:18.073Z,4.68
2022-11-13T08:13:19.440Z,4.32
2022-11-13T08:18:20.803Z,3.55
2022-11-13T08:23:22.368Z,3.63
2022-11-13T08:28:23.965Z,4.00
2022-11-13T08:33:25.361Z,3.65
2022-11-13T08:38:27.031Z,4.60
2022-11-13T08:43:28.653Z,4.10
2022-11-13T08:48:30.575Z,3.15
2022-11-13T08:53:32.175Z,3.42
2022-11-13T08:58:33.580Z,3.67
2022-11-13T09:03:36.693Z,5.57
2022-11-13T09:08:38.103Z,3.22
2022-11-13T09:13:43.997Z,3.08
2022-11-13T09:18:50.668Z,3.88
2022-11-13T09:23:52.031Z,4.43
2022-11-13T09:28:53.399Z,3.50
2022-11-13T09:33:54.788Z,3.90
2022-11-13T09:38:56.164Z,3.58
2022-11-13T09:44:02.535Z,3.83
2022-11-13T09:49:15.675Z,3.95
2022-11-13T09:54:17.178Z,3.60
2022-11-13T09:59:29.435Z,4.18
2022-11-13T10:04:59.815Z,5.78
2022-11-13T10:10:16.577Z,4.35
2022-11-13T10:15:18.067Z,3.47
2022-11-13T10:20:36.112Z,3.88
2022-11-13T10:25:38.175Z,3.95
2022-11-13T10:30:40.004Z,3.05
2022-11-13T10:35:47.003Z,3.20
2022-11-13T10:40:48.391Z,3.53
2022-11-13T10:46:00.738Z,3.60
2022-11-13T10:51:18.331Z,4.72
2022-11-13T10:56:29.497Z,3.70
2022-11-13T11:01:30.960Z,3.95
2022-11-13T11:07:12.903Z,3.65
2022-11-13T11:12:31.296Z,4.30
2022-11-13T11:17:48.187Z,3.43
2022-11-13T11:22:52.865Z,3.72
2022-11-13T11:28:04.791Z,4.25
2022-11-13T11:33:14.404Z,3.50
2022-11-13T11:38:27.521Z,4.35
2022-11-13T11:43:43.340Z,4.45
2022-11-13T11:48:44.719Z,3.53
2022-11-13T11:54:12.503Z,3.67
2022-11-13T11:59:31.312Z,8.93
2022-11-13T12:04:58.015Z,3.67
2022-11-13T12:10:14.860Z,4.65
2022-11-13T12:15:39.372Z,4.05
2022-11-13T12:21:08.807Z,4.63
2022-11-13T12:26:40.808Z,4.43
2022-11-13T12:32:04.794Z,3.60
2022-11-13T12:37:14.622Z,4.90
2022-11-13T12:42:34.355Z,4.90
2022-11-13T12:47:36.123Z,4.15
2022-11-13T12:52:37.623Z,4.75
2022-11-13T12:57:46.851Z,4.25
2022-11-13T13:03:12.795Z,5.15
2022-11-13T13:08:32.057Z,4.38
2022-11-13T13:14:01.472Z,4.90
2022-11-13T13:19:07.727Z,5.32
2022-11-13T13:24:25.507Z,4.28
2022-11-13T13:29:27.829Z,4.88
2022-11-13T13:34:48.548Z,5.05
2022-11-13T13:40:11.312Z,5.38
2022-11-13T13:45:51.167Z,5.80
2022-11-13T13:50:52.539Z,4.05
2022-11-13T13:55:57.039Z,5.55
2022-11-13T14:01:18.377Z,5.40
2022-11-13T14:06:22.345Z,3.58
2022-11-13T14:11:29.607Z,4.47
2022-11-13T14:16:31.241Z,4.95
2022-11-13T14:21:32.607Z,4.93
2022-11-13T14:26:34.095Z,5.10
2022-11-13T14:31:35.572Z,4.60
2022-11-13T14:36:37.224Z,4.60
2022-11-13T14:41:46.333Z,5.10
2022-11-13T14:46:49.851Z,5.50
2022-11-13T14:51:54.686Z,6.30
2022-11-13T14:56:56.068Z,5.10
2022-11-13T15:01:57.646Z,5.68
2022-11-13T15:07:01.006Z,6.28
2022-11-13T15:12:02.475Z,6.82
2022-11-13T15:17:03.880Z,7.43
2022-11-13T15:22:26.639Z,5.95
2022-11-13T15:27:29.195Z,7.03
2022-11-13T15:32:31.164Z,6.93
2022-11-13T15:37:33.120Z,5.93
2022-11-13T15:42:35.096Z,5.85
2022-11-13T15:47:36.752Z,6.07
2022-11-13T15:52:42.570Z,8.23
2022-11-13T15:57:43.954Z,6.47
2022-11-13T16:02:49.952Z,8.25
2022-11-13T16:12:56.475Z,8.32
2022-11-13T16:17:57.988Z,6.30
2022-11-13T16:22:59.443Z,6.80
2022-11-13T16:28:00.984Z,8.13
2022-11-13T16:33:05.660Z,7.88
2022-11-13T16:38:11.655Z,6.63
2022-11-13T16:43:13.230Z,6.60
2022-11-13T16:48:15.099Z,6.63
2022-11-13T16:53:16.478Z,6.68
2022-11-13T16:58:17.840Z,6.63
2022-11-13T17:03:19.215Z,7.85
2022-11-13T17:08:21.816Z,8.15
2022-11-13T17:13:23.243Z,8.68
2022-11-13T17:18:24.620Z,7.55
2022-11-13T17:23:26.206Z,8.18
2022-11-13T17:28:27.803Z,6.85
2022-11-13T17:33:29.959Z,9.45
2022-11-13T17:38:31.523Z,7.45
2022-11-13T17:43:34.717Z,8.18
2022-11-13T17:48:36.082Z,10.18
2022-11-13T17:53:37.449Z,8.95
2022-11-13T17:58:39.807Z,8.27
2022-11-13T18:03:41.241Z,8.82
2022-11-13T18:08:42.891Z,7.53
2022-11-13T18:13:44.370Z,9.48
2022-11-13T18:18:50.034Z,7.75
2022-11-13T18:24:05.813Z,9.15
2022-11-13T18:29:07.314Z,9.10
2022-11-13T18:34:12.514Z,9.35
2022-11-13T18:39:16.723Z,7.93
2022-11-13T18:44:18.364Z,8.98
2022-11-13T18:49:19.807Z,11.48
2022-11-13T18:54:21.185Z,8.75
2022-11-13T18:59:22.575Z,8.02
2022-11-13T19:04:24.593Z,9.05
2022-11-13T19:09:26.154Z,8.07
2022-11-13T19:14:27.563Z,8.15
2022-11-13T19:19:28.971Z,9.27
2022-11-13T19:24:30.572Z,8.95
2022-11-13T19:29:31.932Z,8.68
2022-11-13T19:34:33.292Z,8.63
2022-11-13T19:39:34.936Z,7.47
2022-11-13T19:44:36.320Z,7.82
2022-11-13T19:49:39.535Z,7.95
2022-11-13T19:54:41.872Z,7.50
2022-11-13T19:59:43.251Z,7.72
2022-11-13T20:04:44.624Z,8.05
2022-11-13T20:09:46.007Z,10.60
2022-11-13T20:14:47.403Z,7.63
2022-11-13T20:19:48.780Z,7.97
2022-11-13T20:24:50.154Z,7.78
2022-11-13T20:29:51.522Z,8.35
2022-11-13T20:34:53.228Z,7.70
2022-11-13T20:39:54.762Z,8.00
2022-11-13T20:45:00.824Z,8.90
2022-11-13T20:50:02.404Z,7.05
2022-11-13T20:55:03.860Z,8.20
2022-11-13T21:00:05.810Z,7.65
2022-11-13T21:05:07.430Z,7.20
2022-11-13T21:10:08.972Z,7.75
2022-11-13T21:15:10.487Z,7.75
2022-11-13T21:20:12.191Z,7.65
2022-11-13T21:25:13.563Z,8.63
2022-11-13T21:30:16.435Z,7.20
2022-11-13T21:35:22.389Z,7.47
2022-11-13T21:40:24.178Z,8.00
2022-11-13T21:45:25.539Z,6.78
2022-11-13T21:50:26.903Z,7.18
2022-11-13T21:55:28.281Z,7.00
2022-11-13T22:00:29.651Z,7.25
2022-11-13T22:05:31.023Z,6.35
2022-11-13T22:10:32.401Z,8.93
2022-11-13T22:15:33.799Z,6.95
2022-11-13T22:20:35.164Z,6.22
2022-11-13T22:25:36.524Z,6.65
2022-11-13T22:30:37.944Z,6.00
2022-11-13T22:35:39.319Z,7.15
2022-11-13T22:40:40.680Z,7.10
2022-11-13T22:45:42.041Z,6.15
2022-11-13T22:50:43.408Z,6.22
2022-11-13T22:55:44.777Z,6.20
2022-11-13T23:00:46.144Z,5.75
2022-11-13T23:05:47.531Z,6.15
2022-11-13T23:10:54.907Z,6.50
2022-11-13T23:15:56.427Z,6.82
2022-11-13T23:20:57.829Z,6.15
2022-11-13T23:26:00.091Z,6.85
2022-11-13T23:31:01.516Z,8.00
2022-11-13T23:36:02.940Z,6.22
2022-11-13T23:41:04.302Z,7.18
2022-11-13T23:46:05.723Z,6.13
2022-11-13T23:51:07.236Z,9.10
2022-11-13T23:56:08.706Z,7.07
